x

Albatross Bank - 104nm South Of Kodiak, Ak (46078) Wave Buoy

12:50am - Thu 24th Apr 2014 All times are AKDT. -8 hours from GMT.

  • Sig Wave height 9.8ft
  • Swell Direction
  • Peak Period 14s
  • Average Period 8s
  • Wind
    20mph, 25mph gusts
  • Sea Temp 41°f
  • Air Temp 39°f
  • Sea Pressure 999.9mb
  • Albatross Bank - 104nm South Of Kodiak, Ak
  • Albatross Bank - 104nm South Of Kodiak, Ak

More Historic Weather Station data

Upgrade to MSW Pro to gain access to the past 30 days of data for over 8000 Wavebouys and Weather Stations around the globe.

Join Pro

Comparision Forecast

View Surf forecast
   
Thu 04/24 12:50am 10ft 14s 8s 20 25 mph 999.9mb 41f 39f
Wed 04/23 11:50pm 9.5ft 15s 8s 20 25 mph 999.7mb 41f 39f
10:50pm 9ft 14s 8s 18 22 mph 999.5mb 41f 40f
9:50pm 10.5ft 15s 9s 7 13 mph 999.6mb 41f 40f
8:50pm 11.5ft 15s 9s 4 9 mph 999.2mb 41f 40f
7:50pm 11ft 15s 9s 9 13 mph 999mb 41f 40f
6:50pm 11.5ft 14s 9s 2 7 mph 999.1mb 42f 41f
5:50pm 10.5ft 16s 8s 4 9 mph 999.1mb 42f 41f
4:50pm 11.5ft 15s 9s 4 7 mph 999.3mb 42f 41f
2:50pm 12ft 15s 9s 9 13 mph 999.8mb 41f 41f
1:50pm 14.5ft 14s 9s 13 18 mph 1000mb 41f 40f
12:50pm 15.5ft 15s 10s 18 22 mph 1000mb 41f 40f
11:50am 12.5ft 14s 9s 18 25 mph 999.8mb 41f 40f
10:50am 12ft 15s 9s 20 27 mph 999.7mb 41f 40f
9:50am 12ft 16s 9s 18 22 mph 999.7mb 41f 40f
8:50am 11.5ft 15s 9s 18 22 mph 999.6mb 41f 40f
7:50am 9.5ft 16s 8s 18 22 mph 999.6mb 41f 40f
6:50am 10ft 11s 8s 18 22 mph 999.7mb 41f 40f
5:50am 9.5ft 11s 7s 20 25 mph 999.8mb 41f 40f
4:50am 9.5ft 16s 7s 18 22 mph 1000.2mb 41f 40f
3:50am 9ft 11s 7s 20 25 mph 1000.7mb 41f 40f
2:50am 9ft 11s 7s 22 29 mph 1000.8mb 41f 40f
1:50am 9ft 11s 7s 20 27 mph 1001.4mb 41f 40f
12:50am 8ft 11s 6s 22 27 mph 1001.6mb 41f 41f
Tue 04/22 11:50pm 8ft 10s 6s 22 27 mph 1002mb 41f 41f
10:50pm 7.5ft 11s 6s 22 27 mph 1002.2mb 41f 41f
9:50pm 7ft 10s 6s 22 25 mph 1002.3mb 41f 41f
8:50pm 7ft 10s 6s 20 25 mph 1002.4mb 41f 41f
7:50pm 6.5ft 10s 6s 22 27 mph 1002.4mb 41f 41f
6:50pm 6ft 9s 6s 20 25 mph 1002.8mb 41f 41f
5:50pm 6ft 6s 6s 20 25 mph 1003.3mb 41f 40f
4:50pm 6ft 10s 5s 20 25 mph 1003.7mb 41f 42f
3:50pm 6ft 6s 5s 20 25 mph 1004.3mb 41f 42f
2:50pm 6ft 9s 5s 22 29 mph 1004.7mb 41f 41f
1:50pm 6ft 6s 5s 22 25 mph 1004.9mb 41f 41f
12:50pm 6ft 6s 5s 22 27 mph 1005.1mb 41f 41f
11:50am 6ft 5s 5s 22 27 mph 1004.9mb 41f 41f
10:50am 5.5ft 8s 5s 25 29 mph 1004.8mb 41f 41f
9:50am 5ft 10s 5s 22 27 mph 1004.9mb 41f 41f
8:50am 5.5ft 9s 6s 20 25 mph 1005.2mb 41f 41f
7:50am 5ft 10s 5s 20 22 mph 1005.4mb 41f 41f
6:50am 5ft 10s 6s 20 22 mph 1005.5mb 41f 41f
5:50am 5ft 9s 6s 18 22 mph 1006mb 41f 41f
4:50am 6ft 9s 6s 18 20 mph 1006.6mb 41f 41f
3:50am 5.5ft 9s 6s 16 18 mph 1006.9mb 41f 41f
2:50am 5.5ft 9s 6s 16 18 mph 1007.3mb 41f 41f
1:50am 5.5ft 9s 6s 16 18 mph 1007.7mb 41f 40f
12:50am 6ft 9s 6s 16 20 mph 1008.1mb 41f 40f
Mon 04/21 11:50pm 6ft 9s 6s 18 20 mph 1008.2mb 41f 40f
10:50pm 6ft 10s 7s 16 18 mph 1008.5mb 41f 41f
9:50pm 6ft 9s 7s 13 16 mph 1008.9mb 41f 41f
8:50pm 6ft 10s 7s 11
mph
1009.4mb 41f 41f
7:50pm 6ft 10s 6s 16 18 mph 1009.5mb 41f 40f
6:50pm 7ft 10s 7s 16 20 mph 1009.4mb 41f 40f
5:50pm 6.5ft 11s 7s 16 20 mph 1009.4mb 41f 40f
4:50pm 7ft 10s 7s 16 18 mph 1009.4mb 41f 40f
3:50pm 8ft 11s 8s 16 18 mph 1010.1mb 41f 39f
2:50pm 8ft 8s 7s 13 16 mph 1010.5mb 41f 38f
1:50pm 8.5ft 9s 8s 16 18 mph 1010.3mb 41f 38f
12:50pm 9ft 11s 8s 11 13 mph 1010.3mb 41f 38f
11:50am 9ft 10s 8s 13 16 mph 1010.3mb 40f 39f
10:50am 9ft 9s 8s 11 16 mph 1010mb 40f 41f
9:50am 9ft 11s 8s 11 13 mph 1009.5mb 40f 41f
8:50am 10ft 11s 8s 13 18 mph 1009mb 40f 41f
7:50am 9ft 11s 7s 16 20 mph 1008.6mb 40f 41f
6:50am 9ft 10s 8s 16 18 mph 1008.1mb 40f 41f
5:50am 9.5ft 11s 7s 16 20 mph 1008mb 40f 41f
4:50am 9ft 11s 7s 16 22 mph 1007.9mb 40f 42f
3:50am 9ft 10s 7s 18 25 mph 1007.4mb 40f 42f
2:50am 9ft 11s 7s 18 22 mph 1007mb 40f 42f
1:50am 9ft 8s 7s 18 25 mph 1006.3mb 40f 41f
12:50am 10ft 11s 7s 18 22 mph 1004.9mb 40f 41f
Sun 04/20 11:50pm 10.5ft 11s 7s 16 18 mph 1003.6mb 40f 41f
10:50pm 11ft 12s 7s 18 20 mph 1001.9mb 41f 41f
9:50pm 12ft 10s 7s 25 29 mph 1001mb 41f 42f
8:50pm 11.5ft 8s 7s 25 31 mph 1000.3mb 41f 42f
7:50pm 11ft 11s 7s 27 34 mph 999.9mb 41f 42f
6:50pm 12ft 10s 7s 27 34 mph 999.6mb 40f 42f
5:50pm 11.5ft 11s 7s 29 36 mph 999.3mb 40f 42f
4:50pm 12ft 12s 7s 29 34 mph 999.1mb 40f 44f
2:50pm 12ft 12s 7s 22 29 mph 998mb 41f 43f
1:50pm 12.5ft 10s 7s 29 36 mph 996.9mb 41f 43f
12:50pm 12.5ft 11s 7s 27 34 mph 996.7mb 41f 43f
11:50am 13ft 10s 7s 29 36 mph 996mb 41f 43f
10:50am 13ft 12s 7s 29 34 mph 995.5mb 41f 42f